sensor_id;sensor_type;location;lat;lon;timestamp;P1;durP1;ratioP1;P2;durP2;ratioP2
55455;SDS011;63021;52.836;6.376;2023-02-28T00:00:49;13.88;;;6.90;;
55455;SDS011;63021;52.836;6.376;2023-02-28T00:03:14;14.85;;;6.25;;
55455;SDS011;63021;52.836;6.376;2023-02-28T00:05:40;16.85;;;7.35;;
55455;SDS011;63021;52.836;6.376;2023-02-28T00:08:06;12.90;;;5.32;;
55455;SDS011;63021;52.836;6.376;2023-02-28T00:10:32;15.75;;;6.00;;
55455;SDS011;63021;52.836;6.376;2023-02-28T00:13:02;18.25;;;5.82;;
55455;SDS011;63021;52.836;6.376;2023-02-28T00:15:30;13.30;;;6.22;;
55455;SDS011;63021;52.836;6.376;2023-02-28T00:17:56;12.48;;;5.68;;
55455;SDS011;63021;52.836;6.376;2023-02-28T00:20:22;15.23;;;6.18;;
55455;SDS011;63021;52.836;6.376;2023-02-28T00:22:48;13.63;;;5.38;;
55455;SDS011;63021;52.836;6.376;2023-02-28T00:25:20;9.00;;;4.97;;
55455;SDS011;63021;52.836;6.376;2023-02-28T00:27:48;10.60;;;5.10;;
55455;SDS011;63021;52.836;6.376;2023-02-28T00:30:16;7.68;;;4.43;;
55455;SDS011;63021;52.836;6.376;2023-02-28T00:32:44;9.07;;;4.20;;
55455;SDS011;63021;52.836;6.376;2023-02-28T00:35:09;6.93;;;4.18;;
55455;SDS011;63021;52.836;6.376;2023-02-28T00:37:36;8.68;;;3.70;;
55455;SDS011;63021;52.836;6.376;2023-02-28T00:40:01;5.90;;;3.75;;
55455;SDS011;63021;52.836;6.376;2023-02-28T00:42:29;6.47;;;3.90;;
55455;SDS011;63021;52.836;6.376;2023-02-28T00:44:55;8.57;;;3.95;;
55455;SDS011;63021;52.836;6.376;2023-02-28T00:47:20;9.88;;;3.33;;
55455;SDS011;63021;52.836;6.376;2023-02-28T00:49:46;7.05;;;3.35;;
55455;SDS011;63021;52.836;6.376;2023-02-28T00:52:11;7.00;;;4.35;;
55455;SDS011;63021;52.836;6.376;2023-02-28T00:54:36;6.57;;;4.00;;
55455;SDS011;63021;52.836;6.376;2023-02-28T00:57:02;6.55;;;3.35;;
55455;SDS011;63021;52.836;6.376;2023-02-28T00:59:27;5.35;;;3.88;;
55455;SDS011;63021;52.836;6.376;2023-02-28T01:01:53;9.45;;;4.72;;
55455;SDS011;63021;52.836;6.376;2023-02-28T01:04:18;6.00;;;3.50;;
55455;SDS011;63021;52.836;6.376;2023-02-28T01:06:44;9.15;;;4.68;;
55455;SDS011;63021;52.836;6.376;2023-02-28T01:09:09;13.10;;;7.18;;
55455;SDS011;63021;52.836;6.376;2023-02-28T01:11:35;16.63;;;6.90;;
55455;SDS011;63021;52.836;6.376;2023-02-28T01:14:01;13.07;;;6.38;;
55455;SDS011;63021;52.836;6.376;2023-02-28T01:16:27;15.50;;;6.93;;
55455;SDS011;63021;52.836;6.376;2023-02-28T01:18:53;13.55;;;6.25;;
55455;SDS011;63021;52.836;6.376;2023-02-28T01:21:19;8.40;;;5.38;;
55455;SDS011;63021;52.836;6.376;2023-02-28T01:23:46;9.88;;;5.30;;
55455;SDS011;63021;52.836;6.376;2023-02-28T01:26:19;13.13;;;5.57;;
55455;SDS011;63021;52.836;6.376;2023-02-28T01:28:46;9.50;;;5.15;;
55455;SDS011;63021;52.836;6.376;2023-02-28T01:31:12;7.93;;;4.70;;
55455;SDS011;63021;52.836;6.376;2023-02-28T01:33:38;12.48;;;5.30;;
55455;SDS011;63021;52.836;6.376;2023-02-28T01:36:05;8.93;;;4.82;;
55455;SDS011;63021;52.836;6.376;2023-02-28T01:38:34;9.93;;;4.85;;
55455;SDS011;63021;52.836;6.376;2023-02-28T01:40:59;10.15;;;5.68;;
55455;SDS011;63021;52.836;6.376;2023-02-28T01:45:53;13.68;;;5.57;;
55455;SDS011;63021;52.836;6.376;2023-02-28T01:48:21;8.18;;;4.10;;
55455;SDS011;63021;52.836;6.376;2023-02-28T01:50:52;11.27;;;4.00;;
55455;SDS011;63021;52.836;6.376;2023-02-28T01:53:21;8.80;;;4.18;;
55455;SDS011;63021;52.836;6.376;2023-02-28T01:55:54;6.60;;;3.35;;
55455;SDS011;63021;52.836;6.376;2023-02-28T01:58:20;5.07;;;4.55;;
55455;SDS011;63021;52.836;6.376;2023-02-28T02:00:46;4.55;;;4.10;;
55455;SDS011;63021;52.836;6.376;2023-02-28T02:03:12;6.80;;;3.38;;
55455;SDS011;63021;52.836;6.376;2023-02-28T02:05:40;6.22;;;3.50;;
55455;SDS011;63021;52.836;6.376;2023-02-28T02:08:17;5.05;;;3.35;;
55455;SDS011;63021;52.836;6.376;2023-02-28T02:10:48;6.05;;;3.25;;
55455;SDS011;63021;52.836;6.376;2023-02-28T02:18:23;6.65;;;3.95;;
55455;SDS011;63021;52.836;6.376;2023-02-28T02:38:01;7.82;;;3.78;;
55455;SDS011;63021;52.836;6.376;2023-02-28T02:40:43;7.07;;;3.63;;
55455;SDS011;63021;52.836;6.376;2023-02-28T02:43:19;5.50;;;4.05;;
55455;SDS011;63021;52.836;6.376;2023-02-28T02:46:01;3.33;;;3.03;;
55455;SDS011;63021;52.836;6.376;2023-02-28T02:48:46;8.05;;;3.72;;
55455;SDS011;63021;52.836;6.376;2023-02-28T02:51:16;6.57;;;3.35;;
55455;SDS011;63021;52.836;6.376;2023-02-28T02:53:47;5.63;;;3.38;;
55455;SDS011;63021;52.836;6.376;2023-02-28T02:56:21;7.00;;;3.17;;
55455;SDS011;63021;52.836;6.376;2023-02-28T02:58:50;5.13;;;3.50;;
55455;SDS011;63021;52.836;6.376;2023-02-28T03:01:20;7.22;;;3.20;;
55455;SDS011;63021;52.836;6.376;2023-02-28T03:03:59;3.20;;;2.85;;
55455;SDS011;63021;52.836;6.376;2023-02-28T03:06:27;3.50;;;2.67;;
55455;SDS011;63021;52.836;6.376;2023-02-28T03:08:53;6.43;;;2.90;;
55455;SDS011;63021;52.836;6.376;2023-02-28T03:11:18;6.82;;;3.28;;
55455;SDS011;63021;52.836;6.376;2023-02-28T03:13:53;6.95;;;3.28;;
55455;SDS011;63021;52.836;6.376;2023-02-28T03:24:49;7.38;;;3.78;;
55455;SDS011;63021;52.836;6.376;2023-02-28T03:27:27;8.98;;;3.95;;
55455;SDS011;63021;52.836;6.376;2023-02-28T03:30:00;9.65;;;3.53;;
55455;SDS011;63021;52.836;6.376;2023-02-28T03:32:42;5.57;;;3.08;;
55455;SDS011;63021;52.836;6.376;2023-02-28T03:35:14;7.32;;;3.65;;
55455;SDS011;63021;52.836;6.376;2023-02-28T03:37:46;14.15;;;5.95;;
55455;SDS011;63021;52.836;6.376;2023-02-28T03:40:16;9.20;;;5.30;;
55455;SDS011;63021;52.836;6.376;2023-02-28T03:42:45;9.60;;;5.72;;
55455;SDS011;63021;52.836;6.376;2023-02-28T03:45:19;10.52;;;6.45;;
55455;SDS011;63021;52.836;6.376;2023-02-28T03:50:27;10.88;;;5.65;;
55455;SDS011;63021;52.836;6.376;2023-02-28T03:53:03;8.60;;;6.45;;
55455;SDS011;63021;52.836;6.376;2023-02-28T03:55:35;9.60;;;6.45;;
55455;SDS011;63021;52.836;6.376;2023-02-28T04:01:08;10.95;;;6.63;;
55455;SDS011;63021;52.836;6.376;2023-02-28T04:03:38;15.15;;;7.88;;
55455;SDS011;63021;52.836;6.376;2023-02-28T04:06:05;15.05;;;7.55;;
55455;SDS011;63021;52.836;6.376;2023-02-28T04:08:37;14.43;;;8.63;;
55455;SDS011;63021;52.836;6.376;2023-02-28T04:11:04;15.00;;;9.10;;
55455;SDS011;63021;52.836;6.376;2023-02-28T04:13:39;16.98;;;10.32;;
55455;SDS011;63021;52.836;6.376;2023-02-28T04:16:08;16.08;;;9.65;;
55455;SDS011;63021;52.836;6.376;2023-02-28T04:18:38;15.23;;;9.82;;
55455;SDS011;63021;52.836;6.376;2023-02-28T04:21:04;14.32;;;9.38;;
55455;SDS011;63021;52.836;6.376;2023-02-28T04:23:30;17.58;;;9.70;;
55455;SDS011;63021;52.836;6.376;2023-02-28T04:25:55;15.70;;;9.15;;
55455;SDS011;63021;52.836;6.376;2023-02-28T04:28:21;14.52;;;9.00;;
55455;SDS011;63021;52.836;6.376;2023-02-28T04:30:46;11.43;;;8.32;;
55455;SDS011;63021;52.836;6.376;2023-02-28T04:33:12;14.73;;;9.07;;
55455;SDS011;63021;52.836;6.376;2023-02-28T04:35:40;14.35;;;8.77;;
55455;SDS011;63021;52.836;6.376;2023-02-28T04:38:05;17.73;;;9.05;;
55455;SDS011;63021;52.836;6.376;2023-02-28T04:40:31;11.57;;;8.55;;
55455;SDS011;63021;52.836;6.376;2023-02-28T04:42:56;15.00;;;8.45;;
55455;SDS011;63021;52.836;6.376;2023-02-28T04:45:21;11.57;;;8.30;;
55455;SDS011;63021;52.836;6.376;2023-02-28T04:47:47;12.88;;;8.13;;
55455;SDS011;63021;52.836;6.376;2023-02-28T04:50:12;11.85;;;8.32;;
55455;SDS011;63021;52.836;6.376;2023-02-28T04:52:38;13.07;;;8.82;;
55455;SDS011;63021;52.836;6.376;2023-02-28T04:55:03;11.18;;;8.07;;
55455;SDS011;63021;52.836;6.376;2023-02-28T04:57:29;11.75;;;9.00;;
55455;SDS011;63021;52.836;6.376;2023-02-28T04:59:55;16.80;;;10.10;;
55455;SDS011;63021;52.836;6.376;2023-02-28T05:02:20;15.70;;;9.90;;
55455;SDS011;63021;52.836;6.376;2023-02-28T05:04:46;13.52;;;8.88;;
55455;SDS011;63021;52.836;6.376;2023-02-28T05:07:11;16.67;;;8.85;;
55455;SDS011;63021;52.836;6.376;2023-02-28T05:09:37;14.18;;;9.48;;
55455;SDS011;63021;52.836;6.376;2023-02-28T05:12:02;15.60;;;9.43;;
55455;SDS011;63021;52.836;6.376;2023-02-28T05:14:28;14.93;;;9.07;;
55455;SDS011;63021;52.836;6.376;2023-02-28T05:16:53;16.80;;;9.50;;
55455;SDS011;63021;52.836;6.376;2023-02-28T05:19:19;15.68;;;8.80;;
55455;SDS011;63021;52.836;6.376;2023-02-28T05:21:50;13.90;;;8.73;;
55455;SDS011;63021;52.836;6.376;2023-02-28T05:24:17;17.35;;;9.32;;
55455;SDS011;63021;52.836;6.376;2023-02-28T05:26:48;14.43;;;9.18;;
55455;SDS011;63021;52.836;6.376;2023-02-28T05:29:16;15.57;;;10.35;;
55455;SDS011;63021;52.836;6.376;2023-02-28T05:31:42;13.80;;;9.52;;
55455;SDS011;63021;52.836;6.376;2023-02-28T05:34:07;16.05;;;9.73;;
55455;SDS011;63021;52.836;6.376;2023-02-28T05:36:36;15.05;;;8.75;;
55455;SDS011;63021;52.836;6.376;2023-02-28T05:39:02;17.27;;;10.77;;
55455;SDS011;63021;52.836;6.376;2023-02-28T05:41:28;14.85;;;9.63;;
55455;SDS011;63021;52.836;6.376;2023-02-28T05:43:53;13.73;;;9.27;;
55455;SDS011;63021;52.836;6.376;2023-02-28T05:46:19;18.10;;;10.25;;
55455;SDS011;63021;52.836;6.376;2023-02-28T05:48:45;20.50;;;10.02;;
55455;SDS011;63021;52.836;6.376;2023-02-28T05:51:12;18.48;;;9.80;;
55455;SDS011;63021;52.836;6.376;2023-02-28T05:53:37;18.38;;;10.30;;
55455;SDS011;63021;52.836;6.376;2023-02-28T05:56:03;19.38;;;10.48;;
55455;SDS011;63021;52.836;6.376;2023-02-28T05:58:29;17.30;;;9.40;;
55455;SDS011;63021;52.836;6.376;2023-02-28T06:00:59;15.90;;;9.27;;
55455;SDS011;63021;52.836;6.376;2023-02-28T06:03:26;13.38;;;9.45;;
55455;SDS011;63021;52.836;6.376;2023-02-28T06:05:52;15.15;;;10.32;;
55455;SDS011;63021;52.836;6.376;2023-02-28T06:08:17;14.00;;;9.73;;
55455;SDS011;63021;52.836;6.376;2023-02-28T06:10:43;14.55;;;9.45;;
55455;SDS011;63021;52.836;6.376;2023-02-28T06:13:09;16.17;;;10.65;;
55455;SDS011;63021;52.836;6.376;2023-02-28T06:15:36;15.95;;;10.13;;
55455;SDS011;63021;52.836;6.376;2023-02-28T06:18:02;14.70;;;9.65;;
55455;SDS011;63021;52.836;6.376;2023-02-28T06:20:28;14.80;;;9.13;;
55455;SDS011;63021;52.836;6.376;2023-02-28T06:22:55;15.73;;;9.27;;
55455;SDS011;63021;52.836;6.376;2023-02-28T06:25:23;13.15;;;9.25;;
55455;SDS011;63021;52.836;6.376;2023-02-28T06:27:49;13.77;;;9.38;;
55455;SDS011;63021;52.836;6.376;2023-02-28T06:30:14;14.85;;;9.90;;
55455;SDS011;63021;52.836;6.376;2023-02-28T06:32:40;18.10;;;11.02;;
55455;SDS011;63021;52.836;6.376;2023-02-28T06:35:05;15.35;;;9.45;;
55455;SDS011;63021;52.836;6.376;2023-02-28T06:37:32;17.80;;;10.65;;
55455;SDS011;63021;52.836;6.376;2023-02-28T06:39:57;15.57;;;9.90;;
55455;SDS011;63021;52.836;6.376;2023-02-28T06:42:23;17.13;;;10.80;;
55455;SDS011;63021;52.836;6.376;2023-02-28T06:44:54;15.35;;;8.95;;
55455;SDS011;63021;52.836;6.376;2023-02-28T06:47:20;18.92;;;10.82;;
55455;SDS011;63021;52.836;6.376;2023-02-28T06:49:46;18.85;;;10.45;;
55455;SDS011;63021;52.836;6.376;2023-02-28T06:52:11;15.27;;;11.00;;
55455;SDS011;63021;52.836;6.376;2023-02-28T06:54:37;13.48;;;10.02;;
55455;SDS011;63021;52.836;6.376;2023-02-28T06:57:03;17.83;;;10.32;;
55455;SDS011;63021;52.836;6.376;2023-02-28T06:59:28;17.63;;;9.52;;
55455;SDS011;63021;52.836;6.376;2023-02-28T07:01:54;15.45;;;10.25;;
55455;SDS011;63021;52.836;6.376;2023-02-28T07:04:20;15.55;;;10.38;;
55455;SDS011;63021;52.836;6.376;2023-02-28T07:06:46;17.15;;;10.40;;
55455;SDS011;63021;52.836;6.376;2023-02-28T07:09:11;15.43;;;9.93;;
55455;SDS011;63021;52.836;6.376;2023-02-28T07:11:36;14.27;;;10.32;;
55455;SDS011;63021;52.836;6.376;2023-02-28T07:14:02;16.33;;;9.77;;
55455;SDS011;63021;52.836;6.376;2023-02-28T07:16:27;17.60;;;9.43;;
55455;SDS011;63021;52.836;6.376;2023-02-28T07:18:53;15.77;;;10.30;;
55455;SDS011;63021;52.836;6.376;2023-02-28T07:21:18;13.73;;;10.15;;
55455;SDS011;63021;52.836;6.376;2023-02-28T07:23:44;16.70;;;10.65;;
55455;SDS011;63021;52.836;6.376;2023-02-28T07:26:14;16.55;;;10.32;;
55455;SDS011;63021;52.836;6.376;2023-02-28T07:28:42;16.08;;;10.95;;
55455;SDS011;63021;52.836;6.376;2023-02-28T07:31:08;15.98;;;10.27;;
55455;SDS011;63021;52.836;6.376;2023-02-28T07:33:35;17.20;;;10.82;;
55455;SDS011;63021;52.836;6.376;2023-02-28T07:36:02;15.32;;;9.98;;
55455;SDS011;63021;52.836;6.376;2023-02-28T07:38:29;16.60;;;11.35;;
55455;SDS011;63021;52.836;6.376;2023-02-28T07:40:54;14.77;;;10.13;;
55455;SDS011;63021;52.836;6.376;2023-02-28T07:43:20;14.13;;;9.80;;
55455;SDS011;63021;52.836;6.376;2023-02-28T07:45:45;14.40;;;9.93;;
55455;SDS011;63021;52.836;6.376;2023-02-28T07:48:10;15.65;;;10.02;;
55455;SDS011;63021;52.836;6.376;2023-02-28T07:50:36;15.50;;;9.05;;
55455;SDS011;63021;52.836;6.376;2023-02-28T07:53:01;17.05;;;9.57;;
55455;SDS011;63021;52.836;6.376;2023-02-28T07:55:26;12.57;;;9.57;;
55455;SDS011;63021;52.836;6.376;2023-02-28T07:57:52;18.55;;;10.55;;
55455;SDS011;63021;52.836;6.376;2023-02-28T08:00:17;19.23;;;9.82;;
55455;SDS011;63021;52.836;6.376;2023-02-28T08:02:43;14.13;;;9.52;;
55455;SDS011;63021;52.836;6.376;2023-02-28T08:05:09;16.30;;;10.07;;
55455;SDS011;63021;52.836;6.376;2023-02-28T08:07:34;15.60;;;9.93;;
55455;SDS011;63021;52.836;6.376;2023-02-28T08:10:00;18.00;;;10.75;;
55455;SDS011;63021;52.836;6.376;2023-02-28T08:12:26;14.25;;;9.90;;
55455;SDS011;63021;52.836;6.376;2023-02-28T08:14:51;19.48;;;11.23;;
55455;SDS011;63021;52.836;6.376;2023-02-28T08:17:17;15.25;;;10.00;;
55455;SDS011;63021;52.836;6.376;2023-02-28T08:19:44;16.15;;;11.43;;
55455;SDS011;63021;52.836;6.376;2023-02-28T08:22:11;16.50;;;10.38;;
55455;SDS011;63021;52.836;6.376;2023-02-28T08:24:36;16.95;;;10.35;;
55455;SDS011;63021;52.836;6.376;2023-02-28T08:27:01;15.88;;;10.70;;
55455;SDS011;63021;52.836;6.376;2023-02-28T08:29:27;15.13;;;10.07;;
55455;SDS011;63021;52.836;6.376;2023-02-28T08:31:52;13.18;;;9.55;;
55455;SDS011;63021;52.836;6.376;2023-02-28T08:34:18;15.48;;;9.98;;
55455;SDS011;63021;52.836;6.376;2023-02-28T08:36:43;15.07;;;10.55;;
55455;SDS011;63021;52.836;6.376;2023-02-28T08:39:10;16.48;;;11.10;;
55455;SDS011;63021;52.836;6.376;2023-02-28T08:41:35;13.23;;;10.15;;
55455;SDS011;63021;52.836;6.376;2023-02-28T08:44:01;15.52;;;10.65;;
55455;SDS011;63021;52.836;6.376;2023-02-28T08:46:27;17.17;;;10.32;;
55455;SDS011;63021;52.836;6.376;2023-02-28T08:48:55;12.93;;;8.80;;
55455;SDS011;63021;52.836;6.376;2023-02-28T08:51:25;16.52;;;10.90;;
55455;SDS011;63021;52.836;6.376;2023-02-28T08:53:54;17.90;;;12.98;;
55455;SDS011;63021;52.836;6.376;2023-02-28T08:56:22;19.05;;;11.50;;
55455;SDS011;63021;52.836;6.376;2023-02-28T08:58:48;15.65;;;10.63;;
55455;SDS011;63021;52.836;6.376;2023-02-28T09:01:18;16.38;;;9.88;;
55455;SDS011;63021;52.836;6.376;2023-02-28T09:03:47;13.60;;;10.38;;
55455;SDS011;63021;52.836;6.376;2023-02-28T09:06:14;15.68;;;9.88;;
55455;SDS011;63021;52.836;6.376;2023-02-28T09:08:41;16.77;;;9.35;;
55455;SDS011;63021;52.836;6.376;2023-02-28T09:11:07;12.02;;;9.63;;
55455;SDS011;63021;52.836;6.376;2023-02-28T09:13:33;14.65;;;9.38;;
55455;SDS011;63021;52.836;6.376;2023-02-28T09:15:59;13.88;;;10.13;;
55455;SDS011;63021;52.836;6.376;2023-02-28T09:18:27;12.80;;;8.82;;
55455;SDS011;63021;52.836;6.376;2023-02-28T09:20:53;11.55;;;8.48;;
55455;SDS011;63021;52.836;6.376;2023-02-28T09:23:19;12.80;;;8.38;;
55455;SDS011;63021;52.836;6.376;2023-02-28T09:25:45;10.95;;;8.60;;
55455;SDS011;63021;52.836;6.376;2023-02-28T09:28:12;12.82;;;8.77;;
55455;SDS011;63021;52.836;6.376;2023-02-28T09:30:40;11.48;;;8.93;;
55455;SDS011;63021;52.836;6.376;2023-02-28T09:33:06;12.57;;;8.30;;
55455;SDS011;63021;52.836;6.376;2023-02-28T09:35:31;11.55;;;8.07;;
55455;SDS011;63021;52.836;6.376;2023-02-28T09:37:57;13.07;;;9.13;;
55455;SDS011;63021;52.836;6.376;2023-02-28T09:40:24;15.73;;;9.40;;
55455;SDS011;63021;52.836;6.376;2023-02-28T09:42:51;11.35;;;7.90;;
55455;SDS011;63021;52.836;6.376;2023-02-28T09:45:22;10.13;;;7.25;;
55455;SDS011;63021;52.836;6.376;2023-02-28T09:47:58;13.93;;;8.07;;
55455;SDS011;63021;52.836;6.376;2023-02-28T09:50:40;14.73;;;8.75;;
55455;SDS011;63021;52.836;6.376;2023-02-28T09:53:25;12.93;;;7.53;;
55455;SDS011;63021;52.836;6.376;2023-02-28T09:55:55;9.98;;;7.72;;
55455;SDS011;63021;52.836;6.376;2023-02-28T10:01:06;10.93;;;8.18;;
55455;SDS011;63021;52.836;6.376;2023-02-28T10:03:43;10.23;;;6.93;;
55455;SDS011;63021;52.836;6.376;2023-02-28T10:06:17;9.95;;;7.05;;
55455;SDS011;63021;52.836;6.376;2023-02-28T10:09:04;10.68;;;7.25;;
55455;SDS011;63021;52.836;6.376;2023-02-28T10:11:35;8.27;;;6.57;;
55455;SDS011;63021;52.836;6.376;2023-02-28T10:14:05;13.13;;;8.40;;
55455;SDS011;63021;52.836;6.376;2023-02-28T10:16:35;11.07;;;9.82;;
55455;SDS011;63021;52.836;6.376;2023-02-28T10:19:23;10.52;;;7.93;;
55455;SDS011;63021;52.836;6.376;2023-02-28T10:22:02;8.57;;;6.13;;
55455;SDS011;63021;52.836;6.376;2023-02-28T10:24:35;6.82;;;6.13;;
55455;SDS011;63021;52.836;6.376;2023-02-28T10:27:14;8.40;;;6.85;;
55455;SDS011;63021;52.836;6.376;2023-02-28T10:29:43;11.50;;;6.88;;
55455;SDS011;63021;52.836;6.376;2023-02-28T10:32:11;11.63;;;6.28;;
55455;SDS011;63021;52.836;6.376;2023-02-28T10:34:40;11.15;;;7.13;;
55455;SDS011;63021;52.836;6.376;2023-02-28T10:37:06;7.32;;;5.63;;
55455;SDS011;63021;52.836;6.376;2023-02-28T10:42:02;7.97;;;6.53;;
55455;SDS011;63021;52.836;6.376;2023-02-28T10:44:28;10.85;;;6.60;;
55455;SDS011;63021;52.836;6.376;2023-02-28T10:46:54;10.50;;;6.38;;
55455;SDS011;63021;52.836;6.376;2023-02-28T10:49:25;8.32;;;6.25;;
55455;SDS011;63021;52.836;6.376;2023-02-28T10:52:00;9.57;;;7.13;;
55455;SDS011;63021;52.836;6.376;2023-02-28T10:59:45;7.40;;;5.85;;
55455;SDS011;63021;52.836;6.376;2023-02-28T11:05:24;8.93;;;6.22;;
55455;SDS011;63021;52.836;6.376;2023-02-28T11:10:48;8.70;;;6.18;;
55455;SDS011;63021;52.836;6.376;2023-02-28T11:13:21;8.95;;;6.22;;
55455;SDS011;63021;52.836;6.376;2023-02-28T11:15:51;11.40;;;6.15;;
55455;SDS011;63021;52.836;6.376;2023-02-28T11:18:24;9.52;;;7.13;;
55455;SDS011;63021;52.836;6.376;2023-02-28T11:20:55;8.93;;;6.30;;
55455;SDS011;63021;52.836;6.376;2023-02-28T11:23:24;6.47;;;5.85;;
55455;SDS011;63021;52.836;6.376;2023-02-28T11:25:53;8.95;;;5.68;;
55455;SDS011;63021;52.836;6.376;2023-02-28T11:28:26;9.23;;;6.07;;
55455;SDS011;63021;52.836;6.376;2023-02-28T11:33:28;7.45;;;5.65;;
55455;SDS011;63021;52.836;6.376;2023-02-28T11:36:08;6.43;;;5.65;;
55455;SDS011;63021;52.836;6.376;2023-02-28T11:38:37;5.97;;;4.32;;
55455;SDS011;63021;52.836;6.376;2023-02-28T11:49:07;2.97;;;2.78;;
55455;SDS011;63021;52.836;6.376;2023-02-28T11:51:53;3.95;;;2.75;;
55455;SDS011;63021;52.836;6.376;2023-02-28T11:54:41;3.85;;;2.78;;
55455;SDS011;63021;52.836;6.376;2023-02-28T11:57:29;3.45;;;3.00;;
55455;SDS011;63021;52.836;6.376;2023-02-28T12:03:06;3.20;;;2.90;;
55455;SDS011;63021;52.836;6.376;2023-02-28T12:22:27;4.97;;;3.28;;
55455;SDS011;63021;52.836;6.376;2023-02-28T12:27:29;3.42;;;3.13;;
55455;SDS011;63021;52.836;6.376;2023-02-28T12:29:58;4.90;;;3.35;;
55455;SDS011;63021;52.836;6.376;2023-02-28T12:32:33;5.15;;;2.75;;
55455;SDS011;63021;52.836;6.376;2023-02-28T12:40:13;5.43;;;3.35;;
55455;SDS011;63021;52.836;6.376;2023-02-28T12:42:44;5.10;;;3.72;;
55455;SDS011;63021;52.836;6.376;2023-02-28T12:45:17;5.00;;;3.35;;
55455;SDS011;63021;52.836;6.376;2023-02-28T12:48:01;4.82;;;3.42;;
55455;SDS011;63021;52.836;6.376;2023-02-28T12:50:30;7.03;;;3.60;;
55455;SDS011;63021;52.836;6.376;2023-02-28T12:58:45;3.53;;;3.10;;
55455;SDS011;63021;52.836;6.376;2023-02-28T13:09:35;5.85;;;3.22;;
55455;SDS011;63021;52.836;6.376;2023-02-28T13:12:04;6.85;;;4.43;;
55455;SDS011;63021;52.836;6.376;2023-02-28T13:14:38;7.20;;;5.28;;
55455;SDS011;63021;52.836;6.376;2023-02-28T13:19:39;7.45;;;3.58;;
55455;SDS011;63021;52.836;6.376;2023-02-28T13:22:51;4.45;;;3.83;;
55455;SDS011;63021;52.836;6.376;2023-02-28T13:24:59;8.85;;;5.68;;
55455;SDS011;63021;52.836;6.376;2023-02-28T13:27:58;5.97;;;4.15;;
55455;SDS011;63021;52.836;6.376;2023-02-28T13:39:02;5.03;;;3.58;;
55455;SDS011;63021;52.836;6.376;2023-02-28T13:41:48;3.60;;;3.30;;
55455;SDS011;63021;52.836;6.376;2023-02-28T13:51:50;5.43;;;4.07;;
55455;SDS011;63021;52.836;6.376;2023-02-28T13:57:05;5.95;;;3.67;;
55455;SDS011;63021;52.836;6.376;2023-02-28T14:05:22;4.90;;;3.10;;
55455;SDS011;63021;52.836;6.376;2023-02-28T14:07:54;3.35;;;2.40;;
55455;SDS011;63021;52.836;6.376;2023-02-28T14:10:33;2.03;;;1.92;;
55455;SDS011;63021;52.836;6.376;2023-02-28T14:21:11;3.17;;;2.88;;
55455;SDS011;63021;52.836;6.376;2023-02-28T14:38:24;5.15;;;3.78;;
55455;SDS011;63021;52.836;6.376;2023-02-28T14:40:54;4.82;;;3.80;;
55455;SDS011;63021;52.836;6.376;2023-02-28T14:43:22;5.03;;;4.07;;
55455;SDS011;63021;52.836;6.376;2023-02-28T14:45:50;5.05;;;3.90;;
55455;SDS011;63021;52.836;6.376;2023-02-28T14:48:26;5.43;;;4.03;;
55455;SDS011;63021;52.836;6.376;2023-02-28T14:50:53;5.97;;;4.03;;
55455;SDS011;63021;52.836;6.376;2023-02-28T14:53:22;5.53;;;3.65;;
55455;SDS011;63021;52.836;6.376;2023-02-28T14:55:50;5.65;;;3.88;;
55455;SDS011;63021;52.836;6.376;2023-02-28T15:00:56;6.72;;;4.40;;
55455;SDS011;63021;52.836;6.376;2023-02-28T15:05:57;4.85;;;4.45;;
55455;SDS011;63021;52.836;6.376;2023-02-28T15:08:25;4.97;;;4.43;;
55455;SDS011;63021;52.836;6.376;2023-02-28T15:13:22;5.68;;;5.07;;
55455;SDS011;63021;52.836;6.376;2023-02-28T15:15:55;4.78;;;4.38;;
55455;SDS011;63021;52.836;6.376;2023-02-28T15:18:31;5.50;;;4.77;;
55455;SDS011;63021;52.836;6.376;2023-02-28T15:21:01;6.47;;;5.13;;
55455;SDS011;63021;52.836;6.376;2023-02-28T15:23:30;4.95;;;4.43;;
55455;SDS011;63021;52.836;6.376;2023-02-28T15:25:57;8.05;;;5.00;;
55455;SDS011;63021;52.836;6.376;2023-02-28T15:28:24;10.00;;;5.05;;
55455;SDS011;63021;52.836;6.376;2023-02-28T15:30:54;6.78;;;4.93;;
55455;SDS011;63021;52.836;6.376;2023-02-28T15:33:28;8.00;;;6.43;;
55455;SDS011;63021;52.836;6.376;2023-02-28T15:36:14;6.43;;;4.78;;
55455;SDS011;63021;52.836;6.376;2023-02-28T15:38:42;5.88;;;5.25;;
55455;SDS011;63021;52.836;6.376;2023-02-28T15:41:27;6.25;;;5.63;;
55455;SDS011;63021;52.836;6.376;2023-02-28T15:47:01;7.55;;;5.38;;
55455;SDS011;63021;52.836;6.376;2023-02-28T15:49:29;6.43;;;5.28;;
55455;SDS011;63021;52.836;6.376;2023-02-28T15:52:03;8.20;;;4.90;;
55455;SDS011;63021;52.836;6.376;2023-02-28T15:54:30;5.70;;;4.97;;
55455;SDS011;63021;52.836;6.376;2023-02-28T15:57:06;7.15;;;5.32;;
55455;SDS011;63021;52.836;6.376;2023-02-28T15:59:36;5.38;;;4.85;;
55455;SDS011;63021;52.836;6.376;2023-02-28T16:04:34;7.85;;;5.38;;
55455;SDS011;63021;52.836;6.376;2023-02-28T16:07:00;5.50;;;4.88;;
55455;SDS011;63021;52.836;6.376;2023-02-28T16:09:27;11.77;;;7.18;;
55455;SDS011;63021;52.836;6.376;2023-02-28T16:11:55;7.57;;;5.22;;
55455;SDS011;63021;52.836;6.376;2023-02-28T16:14:24;7.50;;;5.80;;
55455;SDS011;63021;52.836;6.376;2023-02-28T16:17:07;7.85;;;5.97;;
55455;SDS011;63021;52.836;6.376;2023-02-28T16:19:41;6.97;;;6.22;;
55455;SDS011;63021;52.836;6.376;2023-02-28T16:22:10;8.60;;;4.88;;
55455;SDS011;63021;52.836;6.376;2023-02-28T16:24:35;4.72;;;4.25;;
55455;SDS011;63021;52.836;6.376;2023-02-28T16:27:01;5.95;;;4.30;;
55455;SDS011;63021;52.836;6.376;2023-02-28T16:29:28;6.70;;;4.25;;
55455;SDS011;63021;52.836;6.376;2023-02-28T16:31:56;8.65;;;4.53;;
55455;SDS011;63021;52.836;6.376;2023-02-28T16:34:22;5.15;;;4.53;;
55455;SDS011;63021;52.836;6.376;2023-02-28T16:36:47;5.65;;;4.97;;
55455;SDS011;63021;52.836;6.376;2023-02-28T16:39:14;6.05;;;4.82;;
55455;SDS011;63021;52.836;6.376;2023-02-28T16:41:41;5.63;;;5.05;;
55455;SDS011;63021;52.836;6.376;2023-02-28T16:44:10;5.90;;;4.80;;
55455;SDS011;63021;52.836;6.376;2023-02-28T16:46:38;7.00;;;4.70;;
55455;SDS011;63021;52.836;6.376;2023-02-28T16:49:03;7.07;;;4.72;;
55455;SDS011;63021;52.836;6.376;2023-02-28T16:51:29;9.32;;;5.45;;
55455;SDS011;63021;52.836;6.376;2023-02-28T16:53:54;5.40;;;4.90;;
55455;SDS011;63021;52.836;6.376;2023-02-28T16:56:21;7.40;;;5.78;;
55455;SDS011;63021;52.836;6.376;2023-02-28T16:58:49;5.65;;;4.78;;
55455;SDS011;63021;52.836;6.376;2023-02-28T17:01:15;5.25;;;4.63;;
55455;SDS011;63021;52.836;6.376;2023-02-28T17:03:41;6.20;;;4.97;;
55455;SDS011;63021;52.836;6.376;2023-02-28T17:06:23;5.45;;;4.90;;
55455;SDS011;63021;52.836;6.376;2023-02-28T17:08:52;6.30;;;5.07;;
55455;SDS011;63021;52.836;6.376;2023-02-28T17:11:19;7.53;;;4.55;;
55455;SDS011;63021;52.836;6.376;2023-02-28T17:13:45;5.70;;;4.82;;
55455;SDS011;63021;52.836;6.376;2023-02-28T17:16:32;8.15;;;5.40;;
55455;SDS011;63021;52.836;6.376;2023-02-28T17:19:01;7.20;;;5.15;;
55455;SDS011;63021;52.836;6.376;2023-02-28T17:21:28;7.10;;;5.10;;
55455;SDS011;63021;52.836;6.376;2023-02-28T17:23:54;8.70;;;5.70;;
55455;SDS011;63021;52.836;6.376;2023-02-28T17:26:21;5.90;;;5.40;;
55455;SDS011;63021;52.836;6.376;2023-02-28T17:28:49;6.30;;;5.70;;
55455;SDS011;63021;52.836;6.376;2023-02-28T17:31:16;8.50;;;5.63;;
55455;SDS011;63021;52.836;6.376;2023-02-28T17:33:42;8.18;;;5.95;;
55455;SDS011;63021;52.836;6.376;2023-02-28T17:36:18;8.43;;;5.13;;
55455;SDS011;63021;52.836;6.376;2023-02-28T17:38:47;8.15;;;5.68;;